Wetumpka, AL

8:25 PM CST on December 24, 2014 (GMT -0600)
Southwick Residence | Change Station
CLOSE
Current Station
Personal Weather Station
Location: Wetumpka, AL
Elevation: 300 ft
Nearby Weather Stations

Elev 300 ft 32.52 °N, 86.20 °W | Updated 2 seconds ago

Overcast
Overcast
49.4 °F
Feels Like 49 °F
N
2.0
Wind Variable Wind from WNW
Gusts 6.0 mph

Today
High -- | Low -- °F
--% Chance of Precip.
Yesterday
High -- | Low -- °F
Precip. -- in
6:44 AM 4:44 PM
Waxing Crescent, 12% visible
Pressure 29.95 in
Visibility 10.0 miles
Clouds Mostly Cloudy 16000 ft
Overcast 19000 ft
Windchill 49 °F
Dew Point 43 °F
Humidity 78%
Rainfall 0.27 in
Snow Depth Not available.
UV 0 out of 12
Pollen .40 out of 12
Air Quality Not available.
Flu Activity Not available.
METAR KMXF 250158Z AUTO 28005KT 10SM BKN160 OVC190 10/06 A2994 RMK AO2 SLP141 T01040059

More Conditions Fewer Conditions

Pressure 29.95 in
Visibility 10.0 miles
Clouds Mostly Cloudy 16000 ft
Overcast 19000 ft
Windchill 49 °F
Dew Point 43 °F
Humidity 78%
Rainfall 0.27 in
Snow Depth Not available.
UV 0 out of 12
Pollen .40 out of 12
Air Quality Not available.
Flu Activity Not available.
METAR KMXF 250158Z AUTO 28005KT 10SM BKN160 OVC190 10/06 A2994 RMK AO2 SLP141 T01040059

More Conditions Fewer Conditions

10-Day Weather Forecast

Almanac

Astronomy

Dec. 24, 2014 Rise Set
Actual Time
Civil Twilight
Nautical Twilight
Astronomical Twilight
Moon
Length of Visible Light
Length of Day
Tomorrow will be .
, % of the Moon is Illuminated

Today's Extremes

State Highs State Lows

Community

WunderPhotos

Upload Photos

1,780,211 photos uploaded!

WunderBlogs® & News

Nearby

Air Quality

  Air Quality AQ Index Pollutant
Not available.

Snow Depth

Station Depth Elevation

Earthquake Activity

City Distance Mag. Time & Date
Minimum magnitude displayed is 2.5.

Coastal Water Temperatures

Place Temperature

Nearby Weather Stations